Time;durP1;ratioP1;P1;durP2;ratioP2;P2;SDS_P1;SDS_P2;PMS_P1;PMS_P2;Temp;Humidity;BMP_temperature;BMP_pressure;BME280_temperature;BME280_humidity;BME280_pressure;Samples;Min_cycle;Max_cycle;Signal;HPM_P1;HPM_P2
2023/07/22 00:02:00;;;;;;;0.20;0.20;;;13.60;57.50;;;;;;5042743;28;20227;-49
2023/07/22 00:04:30;;;;;;;0.10;0.10;;;13.60;57.60;;;;;;5033412;28;20207;-51
2023/07/22 00:07:01;;;;;;;0.10;0.10;;;13.60;57.50;;;;;;5052497;28;20239;-51
2023/07/22 00:09:36;;;;;;;0.10;0.10;;;13.60;57.50;;;;;;5053753;28;20594;-49
2023/07/22 00:12:07;;;;;;;0.20;0.20;;;13.60;57.50;;;;;;5053724;28;20222;-49
2023/07/22 00:14:41;;;;;;;0.15;0.15;;;13.60;57.50;;;;;;5053960;28;20591;-49
2023/07/22 00:17:12;;;;;;;0.10;0.10;;;13.60;57.60;;;;;;5053268;28;20622;-48
2023/07/22 00:19:43;;;;;;;0.10;0.10;;;13.60;57.40;;;;;;5053069;28;20222;-49
2023/07/22 00:22:13;;;;;;;0.10;0.10;;;13.60;56.80;;;;;;5053066;28;20274;-51
2023/07/22 00:24:47;;;;;;;0.10;0.10;;;13.60;56.30;;;;;;5052289;28;20730;-49
2023/07/22 00:27:20;;;;;;;0.10;0.10;;;13.60;56.00;;;;;;5052857;28;20231;-49
2023/07/22 00:29:50;;;;;;;0.10;0.10;;;13.50;55.80;;;;;;5052909;28;20663;-51
2023/07/22 00:32:21;;;;;;;0.10;0.10;;;13.50;55.70;;;;;;5052899;28;20245;-48
2023/07/22 00:34:51;;;;;;;0.10;0.10;;;13.40;55.70;;;;;;5052700;28;20228;-47
2023/07/22 00:37:22;;;;;;;0.10;0.10;;;13.40;55.70;;;;;;5052949;28;20215;-47
2023/07/22 00:39:56;;;;;;;0.10;0.10;;;13.30;55.80;;;;;;5052209;28;20204;-49
2023/07/22 00:42:26;;;;;;;0.10;0.10;;;13.30;55.90;;;;;;5052535;28;20292;-48
2023/07/22 00:44:57;;;;;;;0.10;0.10;;;13.30;56.10;;;;;;5053512;28;20655;-47
2023/07/22 00:47:28;;;;;;;0.13;0.13;;;13.30;56.30;;;;;;5053079;28;20231;-47
2023/07/22 00:49:58;;;;;;;0.10;0.10;;;13.20;56.40;;;;;;5052737;28;20587;-47
2023/07/22 00:52:29;;;;;;;0.10;0.10;;;13.20;56.50;;;;;;5053601;28;20321;-47
2023/07/22 00:55:02;;;;;;;0.10;0.10;;;13.20;56.60;;;;;;5052555;28;20681;-48
2023/07/22 00:57:33;;;;;;;0.10;0.10;;;13.20;56.80;;;;;;5052963;28;20215;-47
2023/07/22 01:00:04;;;;;;;0.17;0.17;;;13.20;56.80;;;;;;5053147;28;20739;-48
2023/07/22 01:02:36;;;;;;;0.13;0.13;;;13.20;56.90;;;;;;5052714;28;20195;-48
2023/07/22 01:05:08;;;;;;;0.10;0.10;;;13.10;56.90;;;;;;5052330;28;20298;-48
2023/07/22 01:07:40;;;;;;;0.10;0.10;;;13.10;56.90;;;;;;5052267;28;20277;-49
2023/07/22 01:10:13;;;;;;;0.10;0.10;;;13.10;56.90;;;;;;5051682;28;20246;-48
2023/07/22 01:12:43;;;;;;;0.10;0.10;;;13.10;57.00;;;;;;5050634;28;20194;-49
2023/07/22 01:15:15;;;;;;;0.15;0.15;;;13.10;57.00;;;;;;5036789;28;20196;-47
2023/07/22 01:17:46;;;;;;;0.10;0.10;;;13.10;57.10;;;;;;5051365;28;20230;-49
2023/07/22 01:20:20;;;;;;;0.10;0.10;;;13.00;57.20;;;;;;5049113;28;20193;-47
2023/07/22 01:22:56;;;;;;;0.20;0.20;;;13.00;57.20;;;;;;5052673;28;20199;-48
2023/07/22 01:25:27;;;;;;;0.10;0.10;;;13.00;57.30;;;;;;5051680;28;20610;-49
2023/07/22 01:27:58;;;;;;;0.10;0.10;;;13.00;57.40;;;;;;5051909;28;20231;-50
2023/07/22 01:30:29;;;;;;;0.10;0.10;;;12.90;57.50;;;;;;5051667;28;20255;-51
2023/07/22 01:32:59;;;;;;;0.10;0.10;;;12.90;57.50;;;;;;5052125;28;20294;-48
2023/07/22 01:35:30;;;;;;;0.10;0.10;;;12.90;57.60;;;;;;5051695;28;20206;-48
2023/07/22 01:38:03;;;;;;;0.20;0.20;;;12.90;57.80;;;;;;5051553;28;20222;-49
2023/07/22 01:40:33;;;;;;;0.10;0.10;;;12.90;57.90;;;;;;5050984;28;20624;-49
2023/07/22 01:43:04;;;;;;;0.20;0.20;;;12.80;58.00;;;;;;5050221;28;20202;-49
2023/07/22 01:45:35;;;;;;;0.10;0.10;;;12.80;58.10;;;;;;5051725;28;20195;-50
2023/07/22 01:48:06;;;;;;;0.10;0.10;;;12.80;58.10;;;;;;5051630;28;20879;-54
2023/07/22 01:50:36;;;;;;;0.10;0.10;;;12.80;58.00;;;;;;5051651;28;20747;-49
2023/07/22 01:53:09;;;;;;;0.20;0.20;;;12.70;58.00;;;;;;5052024;28;20199;-49
2023/07/22 01:55:40;;;;;;;0.15;0.15;;;12.70;58.10;;;;;;5050191;28;20257;-48
2023/07/22 01:58:10;;;;;;;0.10;0.10;;;12.70;58.20;;;;;;5051746;28;20218;-48
2023/07/22 02:00:41;;;;;;;0.10;0.10;;;12.70;58.30;;;;;;5051727;28;20199;-49
2023/07/22 02:03:12;;;;;;;0.20;0.20;;;12.70;58.40;;;;;;5051829;28;20199;-52
2023/07/22 02:05:43;;;;;;;0.10;0.10;;;12.70;58.40;;;;;;5051698;28;20207;-52
2023/07/22 02:08:15;;;;;;;0.10;0.10;;;12.60;58.50;;;;;;5047202;28;20321;-51
2023/07/22 02:10:46;;;;;;;0.10;0.10;;;12.60;58.70;;;;;;5031122;28;20196;-47
2023/07/22 02:13:17;;;;;;;0.10;0.10;;;12.60;58.70;;;;;;5031715;28;20207;-49
2023/07/22 02:15:48;;;;;;;0.20;0.20;;;12.60;58.70;;;;;;5031605;28;20608;-45
2023/07/22 02:18:18;;;;;;;0.20;0.20;;;12.60;58.70;;;;;;5031628;28;20308;-51
2023/07/22 02:20:49;;;;;;;0.10;0.10;;;12.60;58.70;;;;;;5031378;28;20196;-54
2023/07/22 02:23:21;;;;;;;0.20;0.20;;;12.50;58.70;;;;;;5030948;28;20210;-55
2023/07/22 02:25:53;;;;;;;0.10;0.10;;;12.50;58.70;;;;;;5031277;28;20196;-48
2023/07/22 02:28:24;;;;;;;0.10;0.10;;;12.50;58.70;;;;;;5031272;28;20223;-46
2023/07/22 02:30:55;;;;;;;0.20;0.20;;;12.50;58.80;;;;;;5031611;28;20720;-43
2023/07/22 02:33:26;;;;;;;0.10;0.10;;;12.50;58.80;;;;;;5031350;28;20524;-51
2023/07/22 02:35:56;;;;;;;0.20;0.20;;;12.40;58.60;;;;;;5041415;28;20272;-43
2023/07/22 02:38:29;;;;;;;0.10;0.10;;;12.40;58.60;;;;;;5050831;28;20442;-47
2023/07/22 02:41:06;;;;;;;0.15;0.15;;;12.40;58.60;;;;;;5051272;28;20207;-48
2023/07/22 02:43:37;;;;;;;0.10;0.10;;;12.30;58.60;;;;;;5051304;28;20194;-47
2023/07/22 02:46:08;;;;;;;0.20;0.20;;;12.30;58.70;;;;;;5051009;28;20191;-44
2023/07/22 02:48:39;;;;;;;0.20;0.20;;;12.20;58.70;;;;;;5050774;28;20230;-44
2023/07/22 02:51:11;;;;;;;0.20;0.20;;;12.20;58.80;;;;;;5051152;28;20675;-47
2023/07/22 02:53:44;;;;;;;0.20;0.20;;;12.10;58.90;;;;;;5051041;28;20260;-46
2023/07/22 02:56:15;;;;;;;0.10;0.10;;;12.10;58.90;;;;;;5050674;28;20283;-48
2023/07/22 02:58:46;;;;;;;0.13;0.13;;;12.00;59.00;;;;;;5050803;28;20195;-47
2023/07/22 03:01:16;;;;;;;0.17;0.17;;;12.00;59.20;;;;;;5050767;28;20253;-44
2023/07/22 03:03:47;;;;;;;0.20;0.20;;;11.90;59.30;;;;;;5050548;28;20195;-46
2023/07/22 03:06:18;;;;;;;0.20;0.20;;;11.90;59.40;;;;;;5052341;28;20200;-48
2023/07/22 03:08:51;;;;;;;0.20;0.20;;;11.80;59.50;;;;;;5054558;28;20226;-47
2023/07/22 03:11:24;;;;;;;0.20;0.20;;;11.80;59.60;;;;;;5054971;28;20661;-48
2023/07/22 03:13:55;;;;;;;0.20;0.20;;;11.80;59.70;;;;;;5054939;28;20537;-50
2023/07/22 03:16:26;;;;;;;0.10;0.10;;;11.70;59.80;;;;;;5042897;28;20314;-46
2023/07/22 03:18:57;;;;;;;0.20;0.20;;;11.70;59.90;;;;;;5045296;28;20198;-45
2023/07/22 03:21:27;;;;;;;0.20;0.20;;;11.70;60.10;;;;;;5050688;28;20206;-46
2023/07/22 03:24:00;;;;;;;0.20;0.20;;;11.60;60.20;;;;;;5049783;28;20192;-45
2023/07/22 03:26:30;;;;;;;0.28;0.28;;;11.60;60.30;;;;;;5040354;28;20212;-44
2023/07/22 03:29:01;;;;;;;0.15;0.15;;;11.60;60.40;;;;;;5034123;28;20290;-46
2023/07/22 03:31:32;;;;;;;0.20;0.20;;;11.50;60.50;;;;;;5040596;28;20203;-48
2023/07/22 03:34:02;;;;;;;0.10;0.10;;;11.50;60.60;;;;;;5053930;28;20617;-45
2023/07/22 03:36:35;;;;;;;0.20;0.20;;;11.50;60.70;;;;;;5054002;28;20667;-46
2023/07/22 03:39:08;;;;;;;0.10;0.10;;;11.50;60.80;;;;;;5053324;28;20282;-44
2023/07/22 03:41:38;;;;;;;0.20;0.20;;;11.40;60.90;;;;;;5053289;28;20279;-44
2023/07/22 03:44:09;;;;;;;0.20;0.20;;;11.40;61.00;;;;;;5054075;28;20262;-46
2023/07/22 03:46:40;;;;;;;0.20;0.20;;;11.40;61.00;;;;;;5051443;28;20212;-46
2023/07/22 03:49:10;;;;;;;0.10;0.10;;;11.40;61.10;;;;;;5053671;28;20219;-45
2023/07/22 03:51:41;;;;;;;0.20;0.20;;;11.40;61.20;;;;;;5053619;28;20253;-47
2023/07/22 03:54:13;;;;;;;0.20;0.20;;;11.30;61.30;;;;;;5053545;28;20195;-45
2023/07/22 03:56:44;;;;;;;0.20;0.20;;;11.30;61.40;;;;;;5053426;28;20269;-45
2023/07/22 03:59:15;;;;;;;0.20;0.20;;;11.30;61.40;;;;;;5034048;28;20605;-45
2023/07/22 04:01:46;;;;;;;0.20;0.20;;;11.30;61.50;;;;;;5043176;28;20253;-46
2023/07/22 04:04:17;;;;;;;0.20;0.20;;;11.30;61.50;;;;;;5043025;28;20204;-45
2023/07/22 04:06:47;;;;;;;0.20;0.20;;;11.20;61.40;;;;;;5049777;28;20239;-44
2023/07/22 04:09:20;;;;;;;0.10;0.10;;;11.20;61.40;;;;;;5051983;28;20235;-45
2023/07/22 04:11:51;;;;;;;0.20;0.20;;;11.20;61.50;;;;;;5052427;28;20554;-46
2023/07/22 04:14:21;;;;;;;0.20;0.20;;;11.20;61.60;;;;;;5034489;28;20197;-44
2023/07/22 04:16:52;;;;;;;0.20;0.20;;;11.10;61.70;;;;;;5033247;28;20239;-43
2023/07/22 04:19:22;;;;;;;0.10;0.10;;;11.10;61.80;;;;;;5031901;28;20200;-44
2023/07/22 04:21:54;;;;;;;0.20;0.20;;;11.10;61.90;;;;;;5032918;28;20218;-44
2023/07/22 04:24:28;;;;;;;0.20;0.20;;;11.00;61.80;;;;;;5032659;28;20196;-46
2023/07/22 04:26:59;;;;;;;0.20;0.20;;;11.00;61.90;;;;;;5033009;28;20601;-43
2023/07/22 04:29:31;;;;;;;0.13;0.13;;;11.00;62.10;;;;;;5033503;28;20200;-44
2023/07/22 04:32:02;;;;;;;0.20;0.20;;;11.00;62.30;;;;;;5047337;28;20341;-43
2023/07/22 04:34:34;;;;;;;0.10;0.10;;;10.90;62.50;;;;;;5052445;28;20290;-43
2023/07/22 04:37:05;;;;;;;0.20;0.20;;;10.90;62.40;;;;;;5051692;28;20215;-44
2023/07/22 04:39:37;;;;;;;0.20;0.20;;;10.90;62.50;;;;;;5051675;28;20203;-43
2023/07/22 04:42:08;;;;;;;0.20;0.20;;;10.90;62.60;;;;;;5037055;28;20590;-46
2023/07/22 04:44:39;;;;;;;0.20;0.20;;;10.90;62.80;;;;;;5032763;28;20214;-43
2023/07/22 04:47:09;;;;;;;0.20;0.20;;;10.90;62.80;;;;;;5032882;28;20216;-45
2023/07/22 04:49:40;;;;;;;0.20;0.20;;;10.90;62.90;;;;;;5031732;28;20200;-46
2023/07/22 04:52:11;;;;;;;0.20;0.20;;;10.90;63.00;;;;;;5031628;28;20212;-50
2023/07/22 04:54:47;;;;;;;0.20;0.20;;;10.80;62.90;;;;;;5032714;28;20188;-46
2023/07/22 04:57:18;;;;;;;0.20;0.20;;;10.80;63.50;;;;;;5032722;28;20215;-45
2023/07/22 04:59:49;;;;;;;0.20;0.20;;;10.90;63.70;;;;;;5031574;28;20204;-46
2023/07/22 05:02:20;;;;;;;0.20;0.20;;;10.90;63.70;;;;;;5032821;28;20707;-45
2023/07/22 05:04:50;;;;;;;0.20;0.20;;;10.90;65.00;;;;;;5033850;28;20200;-46
2023/07/22 05:07:21;;;;;;;0.20;0.20;;;11.00;66.00;;;;;;5052323;28;20211;-45
2023/07/22 05:09:53;;;;;;;0.20;0.20;;;11.00;66.30;;;;;;5040474;28;20223;-46
2023/07/22 05:12:24;;;;;;;0.20;0.20;;;11.10;66.80;;;;;;5032218;28;20196;-45
2023/07/22 05:14:55;;;;;;;0.20;0.20;;;11.20;66.80;;;;;;5032830;28;20196;-46
2023/07/22 05:17:25;;;;;;;0.20;0.20;;;11.20;66.60;;;;;;5042207;28;20216;-45
2023/07/22 05:19:56;;;;;;;0.20;0.20;;;11.30;66.40;;;;;;5052422;28;20195;-45
2023/07/22 05:22:27;;;;;;;0.20;0.20;;;11.40;66.20;;;;;;5047566;28;20200;-45
2023/07/22 05:24:59;;;;;;;0.20;0.20;;;11.40;66.10;;;;;;5033601;28;20197;-45
2023/07/22 05:27:30;;;;;;;0.10;0.10;;;11.50;66.00;;;;;;5031915;28;20220;-45
2023/07/22 05:30:01;;;;;;;0.20;0.20;;;11.50;65.80;;;;;;5032196;28;20219;-45
2023/07/22 05:32:32;;;;;;;0.20;0.20;;;11.60;65.60;;;;;;5032564;28;20231;-45
2023/07/22 05:35:04;;;;;;;0.10;0.10;;;11.60;65.40;;;;;;5035355;28;20203;-45
2023/07/22 05:37:35;;;;;;;0.20;0.20;;;11.70;65.10;;;;;;5052170;28;20215;-48
2023/07/22 05:40:09;;;;;;;0.15;0.15;;;11.70;65.10;;;;;;5049990;28;20331;-46
2023/07/22 05:42:39;;;;;;;0.10;0.10;;;11.80;65.10;;;;;;5052027;28;20204;-45
2023/07/22 05:45:13;;;;;;;0.10;0.10;;;11.80;64.90;;;;;;5052364;28;20732;-47
2023/07/22 05:47:44;;;;;;;0.20;0.20;;;11.90;64.80;;;;;;5051860;28;20223;-46
2023/07/22 05:50:14;;;;;;;0.10;0.10;;;11.90;64.60;;;;;;5051946;28;20199;-45
2023/07/22 05:52:45;;;;;;;0.20;0.20;;;11.90;64.40;;;;;;5051858;28;20204;-46
2023/07/22 05:55:18;;;;;;;0.17;0.17;;;11.90;64.30;;;;;;5052623;28;20191;-45
2023/07/22 05:57:49;;;;;;;0.20;0.20;;;12.00;64.20;;;;;;5051572;28;20598;-47
2023/07/22 06:00:20;;;;;;;0.20;0.20;;;12.00;64.00;;;;;;5051075;28;20414;-46
2023/07/22 06:02:50;;;;;;;0.20;0.20;;;12.00;63.70;;;;;;5034138;28;20192;-45
2023/07/22 06:05:21;;;;;;;0.20;0.20;;;12.00;63.60;;;;;;5036905;28;20207;-52
2023/07/22 06:07:51;;;;;;;0.20;0.20;;;12.00;63.50;;;;;;5051760;28;20292;-45
2023/07/22 06:10:24;;;;;;;0.13;0.13;;;12.00;63.20;;;;;;5051794;28;20241;-44
2023/07/22 06:12:55;;;;;;;0.20;0.20;;;12.00;62.70;;;;;;5066634;28;20231;-44
2023/07/22 06:15:26;;;;;;;0.20;0.20;;;12.00;62.30;;;;;;5051397;28;20199;-45
2023/07/22 06:17:56;;;;;;;0.20;0.20;;;11.90;62.20;;;;;;5051326;28;20709;-45
2023/07/22 06:20:27;;;;;;;0.15;0.15;;;11.80;62.00;;;;;;5042958;28;20196;-44
2023/07/22 06:22:58;;;;;;;0.20;0.20;;;11.80;61.80;;;;;;5032042;28;20200;-47
2023/07/22 06:25:30;;;;;;;0.20;0.20;;;11.70;61.70;;;;;;5031899;28;20204;-44
2023/07/22 06:28:01;;;;;;;0.10;0.10;;;11.60;61.60;;;;;;5030945;28;20277;-45
2023/07/22 06:30:32;;;;;;;0.20;0.20;;;11.50;61.60;;;;;;5030648;28;20214;-44
2023/07/22 06:33:02;;;;;;;0.20;0.20;;;11.50;61.60;;;;;;5031580;28;20230;-47
2023/07/22 06:35:33;;;;;;;0.20;0.20;;;11.40;61.50;;;;;;5038252;28;20561;-44
2023/07/22 06:38:03;;;;;;;0.15;0.15;;;11.30;61.50;;;;;;5051308;28;20223;-44
2023/07/22 06:40:36;;;;;;;0.20;0.20;;;11.30;61.50;;;;;;5050649;28;20196;-45
2023/07/22 06:43:07;;;;;;;0.20;0.20;;;11.20;61.60;;;;;;5050911;28;20199;-47
2023/07/22 06:45:38;;;;;;;0.20;0.20;;;11.20;61.60;;;;;;5050721;28;20280;-44
2023/07/22 06:48:08;;;;;;;0.20;0.20;;;11.10;61.60;;;;;;5051112;28;20289;-43
2023/07/22 06:50:40;;;;;;;0.20;0.20;;;11.00;61.50;;;;;;5051264;28;20225;-45
2023/07/22 06:53:11;;;;;;;0.20;0.20;;;11.00;61.70;;;;;;5050854;28;20206;-43
2023/07/22 06:55:51;;;;;;;0.20;0.20;;;10.90;61.60;;;;;;5051097;28;20199;-42
2023/07/22 06:58:22;;;;;;;0.20;0.20;;;10.90;61.60;;;;;;5050823;28;20329;-43
2023/07/22 07:00:56;;;;;;;0.20;0.20;;;10.80;61.60;;;;;;5050911;28;20734;-49
2023/07/22 07:03:27;;;;;;;0.20;0.20;;;10.80;61.70;;;;;;5050595;28;20655;-43
2023/07/22 07:05:58;;;;;;;0.20;0.20;;;10.80;61.70;;;;;;5043928;28;20199;-45
2023/07/22 07:08:29;;;;;;;0.20;0.20;;;10.70;61.70;;;;;;5039835;28;20224;-49
2023/07/22 07:11:03;;;;;;;0.20;0.20;;;10.70;61.80;;;;;;5030105;28;20430;-44
2023/07/22 07:13:33;;;;;;;0.20;0.20;;;10.60;61.70;;;;;;5031285;28;20699;-43
2023/07/22 07:16:24;;;;;;;0.20;0.20;;;10.60;61.80;;;;;;5050843;28;20195;-44
2023/07/22 07:18:55;;;;;;;0.20;0.20;;;10.60;62.00;;;;;;5050333;28;20238;-43
2023/07/22 07:21:26;;;;;;;0.20;0.20;;;10.50;62.00;;;;;;5050445;28;20195;-43
2023/07/22 07:23:57;;;;;;;0.20;0.20;;;10.50;62.10;;;;;;5050127;28;20203;-46
2023/07/22 07:26:30;;;;;;;0.20;0.20;;;10.40;62.20;;;;;;5049966;28;20609;-43
2023/07/22 07:29:00;;;;;;;0.20;0.20;;;10.40;62.40;;;;;;5049839;28;20238;-44
2023/07/22 07:31:31;;;;;;;0.20;0.20;;;10.30;62.30;;;;;;5050215;28;20268;-45
2023/07/22 07:34:02;;;;;;;0.20;0.20;;;10.30;62.50;;;;;;5034192;28;20192;-49
2023/07/22 07:36:32;;;;;;;0.20;0.20;;;10.30;62.60;;;;;;5045188;28;20592;-46
2023/07/22 07:39:03;;;;;;;0.28;0.28;;;10.20;62.60;;;;;;5049259;28;20191;-45
2023/07/22 07:41:36;;;;;;;0.20;0.20;;;10.30;63.20;;;;;;5050648;28;20196;-46
2023/07/22 07:44:06;;;;;;;0.20;0.20;;;10.30;63.40;;;;;;5050067;28;20683;-45
2023/07/22 07:46:37;;;;;;;0.20;0.20;;;10.30;63.30;;;;;;5050376;28;20714;-45
2023/07/22 07:49:08;;;;;;;0.20;0.20;;;10.40;63.40;;;;;;5050123;28;20226;-46
2023/07/22 07:51:39;;;;;;;0.20;0.20;;;10.40;63.60;;;;;;5050711;28;20203;-46
2023/07/22 07:54:09;;;;;;;0.20;0.20;;;10.40;63.60;;;;;;5054424;28;20218;-45
2023/07/22 07:56:42;;;;;;;0.20;0.20;;;10.50;63.70;;;;;;5053921;28;20584;-46
2023/07/22 07:59:13;;;;;;;0.20;0.20;;;10.60;63.70;;;;;;5037193;28;20205;-46
2023/07/22 08:01:43;;;;;;;0.20;0.20;;;10.60;63.70;;;;;;5033869;28;20200;-47
2023/07/22 08:04:14;;;;;;;0.20;0.20;;;10.70;63.70;;;;;;5034054;28;20203;-46
2023/07/22 08:06:44;;;;;;;0.20;0.20;;;10.70;63.70;;;;;;5050447;28;20223;-46
2023/07/22 08:09:18;;;;;;;0.20;0.20;;;10.70;63.70;;;;;;5053868;28;20698;-46
2023/07/22 08:11:51;;;;;;;0.20;0.20;;;10.80;63.70;;;;;;5053723;28;20287;-46
2023/07/22 08:14:22;;;;;;;0.20;0.20;;;10.80;63.60;;;;;;5052261;28;20199;-46
2023/07/22 08:16:53;;;;;;;0.20;0.20;;;10.80;63.60;;;;;;5052693;28;20219;-45
2023/07/22 08:19:23;;;;;;;0.20;0.20;;;10.90;63.70;;;;;;5054080;28;20241;-47
2023/07/22 08:21:54;;;;;;;0.20;0.20;;;10.90;63.80;;;;;;5053533;28;20659;-46
2023/07/22 08:24:24;;;;;;;0.20;0.20;;;10.90;63.80;;;;;;5054006;28;20206;-46
2023/07/22 08:26:57;;;;;;;0.20;0.20;;;11.00;63.90;;;;;;5053636;28;20231;-45
2023/07/22 08:29:28;;;;;;;0.20;0.20;;;11.00;64.00;;;;;;5048674;28;20227;-47
2023/07/22 08:31:58;;;;;;;0.28;0.28;;;11.10;64.20;;;;;;5048042;28;20566;-48
2023/07/22 08:34:29;;;;;;;0.20;0.20;;;11.10;64.30;;;;;;5052342;28;20199;-46
2023/07/22 08:37:00;;;;;;;0.20;0.20;;;11.10;64.20;;;;;;5052682;28;20706;-47
2023/07/22 08:39:30;;;;;;;0.20;0.20;;;11.20;64.20;;;;;;5051966;28;20658;-46
2023/07/22 08:42:05;;;;;;;0.20;0.20;;;11.20;64.10;;;;;;5041294;28;20571;-47
2023/07/22 08:44:40;;;;;;;0.20;0.20;;;11.20;63.90;;;;;;5053113;28;20226;-46
2023/07/22 08:47:15;;;;;;;0.20;0.20;;;11.20;63.70;;;;;;5047279;28;20242;-47
2023/07/22 08:49:54;;;;;;;0.20;0.20;;;11.20;63.70;;;;;;5043784;28;20231;-47
2023/07/22 08:52:26;;;;;;;0.20;0.20;;;11.30;63.60;;;;;;5039260;28;20602;-47
2023/07/22 08:54:57;;;;;;;0.20;0.20;;;11.30;63.40;;;;;;5032508;28;20617;-47
2023/07/22 08:57:31;;;;;;;0.20;0.20;;;11.30;63.40;;;;;;5030666;28;20211;-48
2023/07/22 09:00:06;;;;;;;0.20;0.20;;;11.30;63.50;;;;;;5050852;28;20219;-48
2023/07/22 09:02:37;;;;;;;0.20;0.20;;;11.30;63.50;;;;;;5034631;28;20346;-48
2023/07/22 09:05:09;;;;;;;0.20;0.20;;;11.40;63.60;;;;;;5034261;28;20552;-46
2023/07/22 09:07:40;;;;;;;0.20;0.20;;;11.40;63.60;;;;;;5051369;28;20247;-47
2023/07/22 09:10:12;;;;;;;0.20;0.20;;;11.40;63.60;;;;;;5033768;28;20228;-47
2023/07/22 09:12:45;;;;;;;0.20;0.20;;;11.40;63.60;;;;;;5035621;28;20191;-47
2023/07/22 09:15:16;;;;;;;0.20;0.20;;;11.40;63.40;;;;;;5035737;28;20249;-48
2023/07/22 09:17:50;;;;;;;0.20;0.20;;;11.40;63.30;;;;;;5031793;28;20459;-46
2023/07/22 09:20:22;;;;;;;0.20;0.20;;;11.50;63.20;;;;;;5033105;28;20199;-46
2023/07/22 09:22:54;;;;;;;0.20;0.20;;;11.50;63.20;;;;;;5031773;28;20188;-47
2023/07/22 09:25:25;;;;;;;0.20;0.20;;;11.50;63.10;;;;;;5030745;28;20291;-46
2023/07/22 09:28:01;;;;;;;0.20;0.20;;;11.50;63.00;;;;;;5031332;28;20295;-46
2023/07/22 09:30:34;;;;;;;0.20;0.20;;;11.50;63.00;;;;;;5031000;28;20267;-46
2023/07/22 09:33:06;;;;;;;0.20;0.20;;;11.50;63.00;;;;;;5040414;28;20196;-46
2023/07/22 09:35:48;;;;;;;0.20;0.20;;;11.50;63.10;;;;;;5041159;28;20203;-47
2023/07/22 09:38:26;;;;;;;0.20;0.20;;;11.50;63.00;;;;;;5032148;28;20289;-46
2023/07/22 09:40:57;;;;;;;0.20;0.20;;;11.60;63.00;;;;;;5031828;28;20226;-46
2023/07/22 09:43:29;;;;;;;0.20;0.20;;;11.60;63.00;;;;;;5029568;28;20571;-48
2023/07/22 09:46:07;;;;;;;0.20;0.20;;;11.60;63.00;;;;;;5031822;28;20196;-46
2023/07/22 09:48:44;;;;;;;0.20;0.20;;;11.60;63.00;;;;;;5032385;28;20199;-48
2023/07/22 09:51:19;;;;;;;0.20;0.20;;;11.60;63.00;;;;;;5031639;28;20199;-50
2023/07/22 09:54:03;;;;;;;0.20;0.20;;;11.60;62.80;;;;;;5033258;28;20191;-49
2023/07/22 09:56:34;;;;;;;0.20;0.20;;;11.60;62.80;;;;;;5030408;28;20235;-51
2023/07/22 09:59:08;;;;;;;0.20;0.20;;;11.60;62.80;;;;;;5030600;28;20188;-47
2023/07/22 10:01:40;;;;;;;0.20;0.20;;;11.70;62.90;;;;;;5031120;28;20203;-47
2023/07/22 10:04:12;;;;;;;0.20;0.20;;;11.70;62.90;;;;;;5030714;28;20287;-46
2023/07/22 10:06:45;;;;;;;0.10;0.10;;;11.70;62.90;;;;;;5047057;28;20617;-46
2023/07/22 10:09:17;;;;;;;0.20;0.20;;;11.70;63.00;;;;;;5051096;28;20216;-47
2023/07/22 10:11:48;;;;;;;0.20;0.20;;;11.70;63.00;;;;;;5048042;28;20203;-48
2023/07/22 10:14:21;;;;;;;0.20;0.20;;;11.70;63.00;;;;;;5037410;28;20653;-46
2023/07/22 10:16:52;;;;;;;0.20;0.20;;;11.70;63.00;;;;;;5029338;28;20639;-47
2023/07/22 10:19:25;;;;;;;0.20;0.20;;;11.70;62.90;;;;;;5031051;28;20552;-48
2023/07/22 10:21:56;;;;;;;0.20;0.20;;;11.70;62.80;;;;;;5029597;28;20605;-46
2023/07/22 10:24:28;;;;;;;0.20;0.20;;;11.70;62.80;;;;;;5031680;28;20193;-50
2023/07/22 10:26:58;;;;;;;0.20;0.20;;;11.70;62.70;;;;;;5030557;28;20712;-47
2023/07/22 10:29:33;;;;;;;0.20;0.20;;;11.80;62.70;;;;;;5029520;28;20223;-46
2023/07/22 10:32:04;;;;;;;0.20;0.20;;;11.80;62.60;;;;;;5030155;28;20207;-46
2023/07/22 10:34:35;;;;;;;0.20;0.20;;;11.80;62.60;;;;;;5032591;28;20196;-47
2023/07/22 10:37:06;;;;;;;0.20;0.20;;;11.80;62.60;;;;;;5051262;28;20227;-46
2023/07/22 10:39:36;;;;;;;0.13;0.13;;;11.80;62.60;;;;;;5039987;28;20236;-45
2023/07/22 10:42:08;;;;;;;0.20;0.20;;;11.80;62.70;;;;;;5036046;28;20598;-46
2023/07/22 10:44:42;;;;;;;0.15;0.15;;;11.80;62.70;;;;;;5044769;28;20192;-45
2023/07/22 10:47:13;;;;;;;0.20;0.20;;;11.80;62.70;;;;;;5031080;28;20354;-46
2023/07/22 10:49:51;;;;;;;0.20;0.20;;;11.80;62.70;;;;;;5030028;28;20311;-45
2023/07/22 10:52:47;;;;;;;0.10;0.10;;;11.90;62.80;;;;;;5034505;28;20207;-46
2023/07/22 10:55:21;;;;;;;0.10;0.10;;;11.80;62.70;;;;;;5041660;28;20195;-49
2023/07/22 10:57:53;;;;;;;0.10;0.10;;;11.90;62.70;;;;;;5036010;28;20227;-46
2023/07/22 11:00:31;;;;;;;0.20;0.20;;;11.90;62.60;;;;;;5050887;28;20199;-45
2023/07/22 11:03:15;;;;;;;0.10;0.10;;;11.90;62.70;;;;;;5040847;28;20218;-45
2023/07/22 11:05:53;;;;;;;0.17;0.17;;;11.90;62.50;;;;;;5050250;28;20202;-45
2023/07/22 11:08:41;;;;;;;0.20;0.20;;;11.90;62.50;;;;;;5038123;28;20215;-46
2023/07/22 11:11:13;;;;;;;0.20;0.20;;;11.90;62.50;;;;;;5030488;28;20228;-45
2023/07/22 11:13:44;;;;;;;0.20;0.20;;;11.90;62.50;;;;;;5033496;28;20823;-47
2023/07/22 11:16:18;;;;;;;0.20;0.20;;;11.90;62.50;;;;;;5050232;28;20206;-45
2023/07/22 11:18:49;;;;;;;0.17;0.17;;;11.90;62.50;;;;;;5043653;28;20189;-47
2023/07/22 11:21:19;;;;;;;0.20;0.20;;;11.90;62.50;;;;;;5041695;28;20231;-49
2023/07/22 11:23:50;;;;;;;0.20;0.20;;;11.90;62.50;;;;;;5038427;28;20249;-46
2023/07/22 11:26:21;;;;;;;0.20;0.20;;;11.90;62.60;;;;;;5033436;28;20643;-48
2023/07/22 11:28:52;;;;;;;0.15;0.15;;;11.90;62.60;;;;;;5053832;28;20218;-45
2023/07/22 11:31:25;;;;;;;0.20;0.20;;;11.90;62.60;;;;;;5036246;28;20232;-48
2023/07/22 11:33:56;;;;;;;0.10;0.10;;;11.90;62.60;;;;;;5049026;28;20282;-46
2023/07/22 11:36:26;;;;;;;0.10;0.10;;;12.00;62.70;;;;;;5043929;28;20219;-46
2023/07/22 11:39:03;;;;;;;0.20;0.20;;;12.00;62.60;;;;;;5053661;28;20647;-48
2023/07/22 11:41:34;;;;;;;0.20;0.20;;;12.00;62.60;;;;;;5052871;28;20206;-48
2023/07/22 11:44:08;;;;;;;0.20;0.20;;;12.00;62.50;;;;;;5053224;28;20666;-46
2023/07/22 11:46:51;;;;;;;0.10;0.10;;;12.00;62.40;;;;;;5052575;28;20585;-45
2023/07/22 11:49:29;;;;;;;0.10;0.10;;;12.00;62.40;;;;;;5053916;28;20195;-47
2023/07/22 11:52:01;;;;;;;0.10;0.10;;;12.00;62.30;;;;;;5050684;28;20195;-46
2023/07/22 11:54:32;;;;;;;0.10;0.10;;;12.10;62.30;;;;;;5054297;28;20199;-46
2023/07/22 11:57:15;;;;;;;0.17;0.17;;;12.00;62.30;;;;;;5054270;28;20227;-48
2023/07/22 11:59:48;;;;;;;0.20;0.20;;;12.00;62.40;;;;;;5054526;28;20199;-48
2023/07/22 12:02:22;;;;;;;0.20;0.20;;;12.00;62.40;;;;;;5054066;28;20200;-49
2023/07/22 12:04:56;;;;;;;0.20;0.20;;;12.00;62.40;;;;;;5054302;28;20682;-50
2023/07/22 12:07:28;;;;;;;0.17;0.17;;;12.00;62.40;;;;;;5053956;28;20215;-49
2023/07/22 12:10:00;;;;;;;0.20;0.20;;;12.00;62.40;;;;;;5053383;28;20227;-49
2023/07/22 12:12:57;;;;;;;0.20;0.20;;;12.10;62.50;;;;;;5053418;28;20207;-46
2023/07/22 12:15:28;;;;;;;0.20;0.20;;;12.00;62.50;;;;;;5047687;28;20192;-46
2023/07/22 12:18:02;;;;;;;0.20;0.20;;;12.10;62.40;;;;;;5041936;28;20234;-46
2023/07/22 12:20:33;;;;;;;0.20;0.20;;;12.00;62.30;;;;;;5042564;28;20659;-49
2023/07/22 12:23:04;;;;;;;0.20;0.20;;;12.00;62.40;;;;;;5042785;28;20180;-46
2023/07/22 12:25:36;;;;;;;0.20;0.20;;;12.10;62.40;;;;;;5042395;28;20192;-46
2023/07/22 12:28:07;;;;;;;0.20;0.20;;;12.10;62.30;;;;;;5043283;28;20216;-46
2023/07/22 12:30:38;;;;;;;0.20;0.20;;;12.10;62.30;;;;;;5042058;28;20216;-46
2023/07/22 12:33:11;;;;;;;0.20;0.20;;;12.10;62.20;;;;;;5043235;28;20647;-46
2023/07/22 12:35:42;;;;;;;0.20;0.20;;;12.10;62.20;;;;;;5044324;28;20191;-50
2023/07/22 12:38:13;;;;;;;0.20;0.20;;;12.10;62.20;;;;;;5042664;28;20373;-46
2023/07/22 12:40:43;;;;;;;0.20;0.20;;;12.10;62.30;;;;;;5041499;28;20279;-45
2023/07/22 12:43:14;;;;;;;0.10;0.10;;;12.10;62.20;;;;;;5041550;28;20188;-46
2023/07/22 12:45:45;;;;;;;0.20;0.20;;;12.10;62.20;;;;;;5042410;28;20200;-47
2023/07/22 12:48:19;;;;;;;0.20;0.20;;;12.10;62.20;;;;;;5042090;28;20222;-47
2023/07/22 12:50:50;;;;;;;0.20;0.20;;;12.10;62.20;;;;;;5042493;28;20226;-46
2023/07/22 12:53:20;;;;;;;0.20;0.20;;;12.10;62.20;;;;;;5041868;28;20199;-46
2023/07/22 12:55:51;;;;;;;0.20;0.20;;;12.10;62.20;;;;;;5043136;28;20199;-47
2023/07/22 12:58:22;;;;;;;0.20;0.20;;;12.10;62.20;;;;;;5041879;28;20208;-46
2023/07/22 13:00:53;;;;;;;0.10;0.10;;;12.10;62.10;;;;;;5044867;28;20549;-47
2023/07/22 13:03:25;;;;;;;0.20;0.20;;;12.10;62.10;;;;;;5041722;28;20653;-46
2023/07/22 13:05:56;;;;;;;0.20;0.20;;;12.20;62.20;;;;;;5041495;28;20196;-48
2023/07/22 13:08:26;;;;;;;0.20;0.20;;;12.20;62.10;;;;;;5042091;28;20208;-46
2023/07/22 13:10:57;;;;;;;0.17;0.17;;;12.20;62.10;;;;;;5041248;28;20220;-46
2023/07/22 13:13:28;;;;;;;0.20;0.20;;;12.20;62.10;;;;;;5042234;28;20195;-46